Terminal Aerodrome Forecast
Issued by NWS Binghamton, NY

Home | Current Version | Previous Version | Text Only | Print | Product List | Glossary On
Versions: 1 2 3 4 5 6 7 8 9 10 11 12 13 14 15 16 17 18
000
FTUS41 KBGM 201733
TAFBGM
TAF
KBGM 201733Z 2018/2118 27011G20KT P6SM SCT250
     FM210000 28007KT P6SM BKN200
     FM210900 28004KT P6SM BKN010=

USA.gov is the U.S. government's official web portal to all federal, state and local government web resources and services.